Portada
METAR-TAF:

METAR-TAF

Aeroports :

Beauvais, França

latitud: 49-28N, longitud: 002-07E, altitud: 109 m

Observació

L'informe es va fer fa 37 minuts, a les 20:00 UTC
Vent 6 kt del Nord/Nord-Est
Temperatura 19°C
Humitat 64%
Pressió 1018 hPa
Visibilitat 10 km o més
sense núvols per sota de 1500 mi sense presència de cumulonimbus.

METAR: LFOB 012000Z AUTO 02006KT CAVOK 19/12 Q1018 NOSIG

Hora: 22:37 (20:37 UTC)

Pronòstic

L'informe es va fer fa 3 hores i 37 minuts, a les 17:00 UTC
Pronòstic vàlid del 01 a les 18 UTC al 02 a les 18 UTC
Vent 9 kt del Est/Nord-Est
Visibilitat 10 km o més
sense núvols per sota de 1500 mi sense presència de cumulonimbus.
Evolucionant progressivament
l' 01 a les 18 UTC al 01 a les 20 UTC
Vent 2 kt amb direcció variable
Evolucionant progressivament
l' 02 a les 09 UTC al 02 a les 11 UTC
Vent 10 kt del Est

TAF: LFOB 011700Z 0118/0218 06009KT CAVOK BECMG 0118/0120 VRB02KT BECMG 0209/0211 10010KT

Observacions i pronòstics meteorològics de més de 4000 aeroports (METAR i TAF).

Les estacions disponibles són els punts grocs i vermells al mapa.

Posi el ratolí al punt desitjat per veure el nom de l'estació.

Feu clic per veure les observacions i els pronòstics meteorològics.

Per canviar el mapa: feu clic els botons verds amb una creu de color negre per apropar; al botó verd amb un guió per allunyar la imatge; o en les fletxes verdes per a mapes adjacents.


METAR-TAF: